Time;durP1;ratioP1;P1;durP2;ratioP2;P2;SDS_P1;SDS_P2;PMS_P1;PMS_P2;Temp;Humidity;BMP_temperature;BMP_pressure;BME280_temperature;BME280_humidity;BME280_pressure;Samples;Min_cycle;Max_cycle;Signal;HPM_P1;HPM_P2
2023/05/08 00:01:36;;;;;;;19.95;8.52;;;;;;;2.52;49.20;101254.31;5092905;28;20442;-59
2023/05/08 00:04:02;;;;;;;21.50;8.10;;;;;;;2.63;49.36;101275.22;5092869;28;20435;-57
2023/05/08 00:06:27;;;;;;;18.95;8.88;;;;;;;2.58;49.27;101277.94;5092640;28;20047;-62
2023/05/08 00:08:54;;;;;;;14.30;8.75;;;;;;;2.54;48.95;101271.00;5074508;28;20067;-61
2023/05/08 00:11:20;;;;;;;25.75;8.60;;;;;;;2.53;49.11;101288.66;5093065;28;20050;-59
2023/05/08 00:13:45;;;;;;;18.98;9.40;;;;;;;2.48;49.76;101282.59;5092912;28;20081;-58
2023/05/08 00:16:11;;;;;;;21.60;9.13;;;;;;;2.50;49.70;101291.34;5092435;28;20040;-61
2023/05/08 00:18:37;;;;;;;19.83;9.40;;;;;;;2.48;49.63;101285.22;5092352;28;20379;-59
2023/05/08 00:21:06;;;;;;;21.40;8.57;;;;;;;2.50;49.98;101286.06;5075256;28;20028;-60
2023/05/08 00:23:32;;;;;;;19.38;8.30;;;;;;;2.45;49.67;101285.31;5092548;28;20514;-60
2023/05/08 00:25:58;;;;;;;18.00;8.77;;;;;;;2.43;49.69;101285.34;5092688;28;20135;-62
2023/05/08 00:28:23;;;;;;;19.33;8.80;;;;;;;2.42;49.52;101288.91;5074493;28;20124;-59
2023/05/08 00:30:49;;;;;;;18.05;8.65;;;;;;;2.37;49.86;101284.63;5092576;28;20028;-58
2023/05/08 00:33:15;;;;;;;19.35;8.50;;;;;;;2.35;49.81;101282.00;5092874;28;20059;-59
2023/05/08 00:35:41;;;;;;;25.48;8.73;;;;;;;2.39;50.29;101294.25;5092282;28;20028;-61
2023/05/08 00:38:08;;;;;;;18.77;9.20;;;;;;;2.38;50.00;101300.44;5092242;28;20024;-60
2023/05/08 00:40:33;;;;;;;19.65;8.73;;;;;;;2.37;50.08;101297.84;5092711;28;20028;-60
2023/05/08 00:42:59;;;;;;;16.98;8.52;;;;;;;2.31;50.09;101285.63;5093046;28;20035;-61
2023/05/08 00:45:35;;;;;;;13.10;8.68;;;;;;;2.38;50.01;101296.94;5092218;28;20085;-60
2023/05/08 00:48:01;;;;;;;19.08;9.10;;;;;;;2.33;50.36;101297.03;5092452;28;20032;-60
2023/05/08 00:50:27;;;;;;;20.33;8.68;;;;;;;2.30;49.95;101294.47;5060452;28;20024;-59
2023/05/08 00:52:53;;;;;;;18.63;8.50;;;;;;;2.24;50.73;101295.47;5096231;28;20032;-58
2023/05/08 00:55:19;;;;;;;19.98;8.65;;;;;;;2.26;50.58;101303.38;5078198;28;20020;-60
2023/05/08 00:57:47;;;;;;;20.48;9.23;;;;;;;2.26;50.54;101303.38;5095663;28;20028;-61
2023/05/08 01:00:16;;;;;;;21.42;8.63;;;;;;;2.23;50.86;101306.94;5095531;28;20028;-59
2023/05/08 01:02:42;;;;;;;16.63;8.65;;;;;;;2.22;51.27;101304.34;5095289;28;20327;-59
2023/05/08 01:05:08;;;;;;;23.17;8.30;;;;;;;2.20;50.83;101301.72;5095229;28;20027;-61
2023/05/08 01:07:33;;;;;;;22.60;8.60;;;;;;;2.20;51.04;101307.00;5095165;28;20055;-60
2023/05/08 01:09:59;;;;;;;23.10;8.45;;;;;;;2.20;50.73;101306.16;5077821;28;20042;-58
2023/05/08 01:12:36;;;;;;;20.40;8.80;;;;;;;2.19;50.96;101302.63;5095027;28;20056;-58
2023/05/08 01:15:20;;;;;;;16.98;8.65;;;;;;;2.26;50.92;101303.38;5095486;28;20032;-58
2023/05/08 01:17:54;;;;;;;25.15;9.38;;;;;;;2.21;51.19;101305.25;5094999;28;20119;-58
2023/05/08 01:20:35;;;;;;;20.08;8.77;;;;;;;2.19;51.25;101313.19;5094615;28;20099;-60
2023/05/08 01:23:22;;;;;;;21.45;8.48;;;;;;;2.23;51.15;101314.84;5095374;28;20457;-65
2023/05/08 01:25:59;;;;;;;22.08;8.52;;;;;;;2.14;51.29;101308.00;5094980;28;20030;-58
2023/05/08 01:28:44;;;;;;;24.20;8.48;;;;;;;2.22;51.27;101306.97;5094907;28;20047;-59
2023/05/08 01:31:25;;;;;;;17.48;7.70;;;;;;;2.19;51.34;101307.06;5094961;28;20517;-58
2023/05/08 01:34:07;;;;;;;15.82;8.25;;;;;;;2.01;51.50;101288.03;5094834;28;20031;-60
2023/05/08 01:36:46;;;;;;;16.05;8.52;;;;;;;1.95;52.01;101283.75;5094692;28;20024;-60
2023/05/08 01:39:45;;;;;;;23.35;9.60;;;;;;;2.18;51.89;101314.09;5095007;28;20024;-57
2023/05/08 01:42:11;;;;;;;17.90;8.45;;;;;;;2.14;51.81;101313.28;5094716;28;20028;-59
2023/05/08 01:44:46;;;;;;;20.38;8.70;;;;;;;1.97;52.23;101281.94;5094214;28;20035;-62
2023/05/08 01:47:13;;;;;;;;;;;;;;;2.46;49.96;101317.91;5094998;28;20032;-60
2023/05/08 01:49:48;;;;;;;15.32;7.80;;;;;;;2.35;50.81;101324.28;5094647;28;20347;-59
2023/05/08 01:52:17;;;;;;;16.90;8.68;;;;;;;2.29;51.58;101321.78;5094126;28;20032;-59
2023/05/08 01:54:54;;;;;;;18.30;8.43;;;;;;;2.32;51.91;101331.44;5094127;28;20130;-59
2023/05/08 01:57:23;;;;;;;17.48;8.55;;;;;;;2.31;51.96;101327.06;5094142;28;20437;-58
2023/05/08 01:59:50;;;;;;;16.00;8.85;;;;;;;2.30;52.11;101334.09;5094478;28;20124;-62
2023/05/08 02:02:17;;;;;;;17.95;8.70;;;;;;;2.34;52.32;101335.78;5094270;28;20110;-60
2023/05/08 02:04:43;;;;;;;14.95;8.45;;;;;;;2.31;52.45;101332.34;5093868;28;20043;-59
2023/05/08 02:07:10;;;;;;;19.38;8.45;;;;;;;2.36;52.30;101331.31;5076553;28;20052;-60
2023/05/08 02:09:37;;;;;;;15.85;8.35;;;;;;;2.42;52.27;101341.78;5094416;28;20122;-60
2023/05/08 02:12:06;;;;;;;17.15;8.65;;;;;;;2.46;52.21;101341.72;5094469;28;20038;-59
2023/05/08 02:14:35;;;;;;;15.15;8.55;;;;;;;2.32;52.36;101312.94;5076305;28;20028;-59
2023/05/08 02:17:02;;;;;;;13.55;8.07;;;;;;;2.35;52.62;101312.88;5094045;28;20032;-60
2023/05/08 02:19:29;;;;;;;17.35;8.75;;;;;;;2.61;52.04;101343.13;5094207;28;20044;-61
2023/05/08 02:21:57;;;;;;;16.70;8.40;;;;;;;2.68;52.38;101339.44;5093656;28;20043;-58
2023/05/08 02:24:24;;;;;;;20.08;8.80;;;;;;;2.72;52.09;101343.75;5093815;28;20119;-59
2023/05/08 02:26:52;;;;;;;14.93;8.35;;;;;;;2.78;52.22;101345.38;5094067;28;20028;-57
2023/05/08 02:29:20;;;;;;;20.52;8.90;;;;;;;2.83;51.74;101346.13;5076322;28;20040;-60
2023/05/08 02:31:46;;;;;;;16.77;9.05;;;;;;;2.87;51.62;101347.78;5093687;28;20020;-59
2023/05/08 02:34:12;;;;;;;17.30;8.85;;;;;;;2.92;51.84;101347.69;5075611;28;20131;-61
2023/05/08 02:36:39;;;;;;;18.65;9.55;;;;;;;2.81;51.53;101326.78;5093913;28;20064;-61
2023/05/08 02:39:06;;;;;;;18.85;9.38;;;;;;;3.04;51.40;101354.47;5094260;28;20035;-57
2023/05/08 02:41:32;;;;;;;25.40;9.32;;;;;;;3.08;51.76;101361.41;5093530;28;20105;-58
2023/05/08 02:43:58;;;;;;;17.92;9.20;;;;;;;3.12;51.83;101355.13;5093624;28;20031;-58
2023/05/08 02:46:34;;;;;;;21.48;9.77;;;;;;;3.27;51.48;101367.13;5093206;28;20024;-59
2023/05/08 02:49:15;;;;;;;18.75;9.15;;;;;;;3.35;50.94;101369.56;5093466;28;20032;-60
2023/05/08 02:51:54;;;;;;;18.40;9.95;;;;;;;3.40;51.45;101375.63;5093208;28;20122;-60
2023/05/08 02:54:39;;;;;;;16.98;9.52;;;;;;;3.56;50.79;101374.31;5093262;28;20362;-62
2023/05/08 02:57:30;;;;;;;18.88;10.15;;;;;;;3.65;50.49;101375.84;5093192;28;20451;-60
2023/05/08 03:00:26;;;;;;;17.17;9.65;;;;;;;3.74;50.08;101382.69;5093241;28;20430;-59
2023/05/08 03:03:14;;;;;;;20.10;9.77;;;;;;;3.90;49.69;101382.25;5092991;28;20054;-58
2023/05/08 03:05:45;;;;;;;24.63;10.05;;;;;;;3.93;50.06;101390.13;5093336;28;20764;-61
2023/05/08 03:08:17;;;;;;;21.60;9.73;;;;;;;4.01;49.19;101386.34;5092938;28;20040;-61
2023/05/08 03:10:48;;;;;;;22.33;9.65;;;;;;;4.13;49.25;101390.44;5092911;28;20044;-60
2023/05/08 03:13:15;;;;;;;18.60;9.82;;;;;;;4.21;48.63;101389.34;5092462;28;20082;-59
2023/05/08 03:15:44;;;;;;;16.05;9.48;;;;;;;4.29;48.52;101382.91;5093406;28;20028;-62
2023/05/08 03:18:23;;;;;;;26.45;11.32;;;;;;;4.47;48.44;101390.34;5093535;28;20104;-59
2023/05/08 03:20:53;;;;;;;25.17;10.70;;;;;;;4.59;48.06;101384.69;5093090;28;20040;-61
2023/05/08 03:23:20;;;;;;;20.50;11.07;;;;;;;4.30;48.14;101325.44;5092847;28;20063;-59
2023/05/08 03:25:46;;;;;;;16.58;10.23;;;;;;;4.64;47.65;101363.31;5092923;28;20122;-58
2023/05/08 03:28:13;;;;;;;19.70;10.63;;;;;;;4.94;47.00;101395.09;5093103;28;20032;-63
2023/05/08 03:30:40;;;;;;;20.48;10.55;;;;;;;5.08;46.65;101400.00;5092716;28;20499;-60
2023/05/08 03:33:07;;;;;;;27.38;11.05;;;;;;;5.27;46.57;101390.47;5092462;28;20040;-57
2023/05/08 03:35:36;;;;;;;21.70;10.20;;;;;;;5.41;46.57;101366.09;5093044;28;20438;-62
2023/05/08 03:38:03;;;;;;;18.15;10.40;;;;;;;6.27;45.02;101387.03;5092583;28;20057;-60
2023/05/08 03:40:29;;;;;;;22.48;10.43;;;;;;;7.55;42.23;101386.41;5092232;28;20122;-61
2023/05/08 03:42:56;;;;;;;20.98;9.93;;;;;;;9.11;39.03;101404.25;5092766;28;20124;-62
2023/05/08 03:45:22;;;;;;;20.38;10.02;;;;;;;10.70;35.82;101393.38;5092896;28;20027;-62
2023/05/08 03:47:48;;;;;;;20.50;9.63;;;;;;;12.22;32.99;101394.38;5092188;28;20059;-60
2023/05/08 03:50:14;;;;;;;22.70;10.38;;;;;;;13.60;30.45;101397.09;5092280;28;20509;-63
2023/05/08 03:52:40;;;;;;;19.13;9.80;;;;;;;14.76;28.27;101395.31;5092922;28;20039;-62
2023/05/08 03:55:06;;;;;;;19.73;9.55;;;;;;;15.91;26.70;101386.72;5092571;28;20397;-61
2023/05/08 03:57:58;;;;;;;16.77;9.10;;;;;;;17.08;24.94;101403.50;5092124;28;20035;-61
2023/05/08 04:00:36;;;;;;;19.75;8.88;;;;;;;17.77;24.33;101378.81;5092358;28;20469;-60
2023/05/08 04:03:28;;;;;;;16.20;9.73;;;;;;;18.58;22.46;101378.06;5092729;28;20543;-62
2023/05/08 04:06:09;;;;;;;16.75;9.05;;;;;;;19.92;22.02;101399.31;5081432;28;21089;-62
2023/05/08 04:09:01;;;;;;;13.45;8.90;;;;;;;20.89;21.12;101398.19;5091917;28;20056;-61
2023/05/08 04:11:34;;;;;;;15.77;9.30;;;;;;;21.52;19.14;101399.16;5092421;28;20371;-62
2023/05/08 04:14:03;;;;;;;16.35;8.52;;;;;;;22.01;18.55;101392.38;5074810;28;20036;-61
2023/05/08 04:16:34;;;;;;;15.23;8.80;;;;;;;22.56;17.79;101399.34;5092243;28;20100;-61
2023/05/08 04:19:10;;;;;;;11.82;7.47;;;;;;;22.98;17.80;101393.97;5092092;28;20033;-61
2023/05/08 04:21:40;;;;;;;11.23;6.85;;;;;;;23.23;16.83;101398.47;5092493;28;20047;-61
2023/05/08 04:24:07;;;;;;;11.52;5.82;;;;;;;23.74;16.17;101400.19;5094281;28;20115;-63
2023/05/08 04:26:33;;;;;;;8.63;6.43;;;;;;;24.30;15.35;101377.53;5095862;28;20347;-62
2023/05/08 04:28:59;;;;;;;9.45;6.78;;;;;;;24.64;15.38;101389.22;5095974;28;20114;-61
2023/05/08 04:31:26;;;;;;;13.90;7.32;;;;;;;24.82;15.06;101399.06;5095678;28;20119;-61
2023/05/08 04:33:51;;;;;;;9.45;6.47;;;;;;;24.83;14.57;101389.78;5078460;28;20030;-62
2023/05/08 04:36:17;;;;;;;7.78;6.22;;;;;;;25.26;14.71;101398.41;5095857;28;20024;-63
2023/05/08 04:38:42;;;;;;;12.73;6.93;;;;;;;25.75;14.10;101397.19;5095720;28;20101;-61
2023/05/08 04:41:08;;;;;;;12.55;7.03;;;;;;;25.85;13.90;101369.50;5096029;28;20519;-62
2023/05/08 04:43:35;;;;;;;7.80;5.60;;;;;;;26.01;13.66;101397.78;5095985;28;20040;-62
2023/05/08 04:46:01;;;;;;;7.85;5.30;;;;;;;26.27;13.42;101391.00;5077799;28;20035;-62
2023/05/08 04:48:28;;;;;;;10.27;5.80;;;;;;;26.84;12.74;101385.81;5095787;28;20028;-61
2023/05/08 04:50:53;;;;;;;11.48;6.07;;;;;;;27.61;12.88;101394.41;5094270;28;20036;-61
2023/05/08 04:53:19;;;;;;;11.95;5.93;;;;;;;28.18;12.02;101392.53;5094095;28;20093;-61
2023/05/08 04:55:45;;;;;;;11.07;6.43;;;;;;;28.78;11.45;101386.44;5094649;28;20095;-61
2023/05/08 04:58:10;;;;;;;10.60;5.35;;;;;;;29.23;11.29;101401.63;5094301;28;20036;-63
2023/05/08 05:00:36;;;;;;;6.18;4.03;;;;;;;29.21;10.76;101370.66;5094605;28;20345;-62
2023/05/08 05:03:01;;;;;;;6.72;4.55;;;;;;;29.21;10.75;101399.06;5076149;28;20134;-62
2023/05/08 05:05:27;;;;;;;8.38;4.38;;;;;;;28.48;11.35;101395.03;5093813;28;20021;-61
2023/05/08 05:07:52;;;;;;;6.55;3.58;;;;;;;28.35;11.55;101398.56;5093972;28;20056;-63
2023/05/08 05:10:18;;;;;;;6.50;3.53;;;;;;;29.01;11.11;101392.66;5094444;28;20058;-63
2023/05/08 05:12:45;;;;;;;6.10;2.60;;;;;;;29.45;10.56;101401.47;5077830;28;20028;-61
2023/05/08 05:15:11;;;;;;;6.03;2.42;;;;;;;29.74;10.24;101399.34;5095389;28;20039;-62
2023/05/08 05:17:36;;;;;;;4.90;2.45;;;;;;;30.29;9.76;101387.13;5095199;28;20126;-62
2023/05/08 05:20:02;;;;;;;7.22;2.70;;;;;;;31.15;9.15;101409.09;5094981;28;20062;-63
2023/05/08 05:22:33;;;;;;;4.60;2.50;;;;;;;31.30;9.18;101409.63;5095288;28;20032;-61
2023/05/08 05:24:59;;;;;;;4.10;2.30;;;;;;;30.96;8.94;101392.38;5094938;28;20115;-61
2023/05/08 05:27:25;;;;;;;6.38;2.17;;;;;;;31.26;8.99;101408.38;5095025;28;20518;-62
2023/05/08 05:29:51;;;;;;;4.50;1.98;;;;;;;31.88;8.52;101406.81;5077444;28;20530;-62
2023/05/08 05:32:17;;;;;;;5.25;1.92;;;;;;;32.19;8.49;101405.88;5095586;28;20449;-62
2023/05/08 05:34:43;;;;;;;3.47;1.60;;;;;;;32.14;8.59;101407.63;5094691;28;20036;-61
2023/05/08 05:37:08;;;;;;;5.20;1.80;;;;;;;32.31;7.75;101414.25;5095018;28;20428;-62
2023/05/08 05:39:35;;;;;;;2.38;2.00;;;;;;;32.76;8.35;101410.28;5095394;28;20077;-62
2023/05/08 05:42:00;;;;;;;5.80;1.70;;;;;;;32.99;7.98;101419.00;5095132;28;20043;-62
2023/05/08 05:44:26;;;;;;;3.00;2.00;;;;;;;33.36;7.44;101411.38;5094787;28;20371;-61
2023/05/08 05:46:51;;;;;;;3.25;1.60;;;;;;;32.71;7.86;101390.75;5094897;28;20036;-62
2023/05/08 05:49:17;;;;;;;7.93;2.28;;;;;;;33.37;7.84;101414.97;5095352;28;20036;-61
2023/05/08 05:51:42;;;;;;;4.25;2.40;;;;;;;34.28;7.02;101407.44;5094646;28;20111;-62
2023/05/08 05:54:08;;;;;;;5.28;1.90;;;;;;;35.41;6.63;101410.72;5094808;28;20032;-63
2023/05/08 05:56:33;;;;;;;6.28;1.85;;;;;;;36.24;6.04;101404.50;5095054;28;20035;-63
2023/05/08 05:58:59;;;;;;;5.15;2.60;;;;;;;36.42;5.70;101408.94;5094970;28;20024;-61
2023/05/08 06:01:27;;;;;;;4.45;2.38;;;;;;;36.60;5.79;101379.03;5094803;28;20024;-66
2023/05/08 06:03:53;;;;;;;2.13;1.45;;;;;;;36.52;5.87;101407.38;5094346;28;20028;-62
2023/05/08 06:06:19;;;;;;;1.55;1.30;;;;;;;36.78;5.46;101406.56;5094544;28;20040;-63
2023/05/08 06:08:45;;;;;;;2.58;1.10;;;;;;;37.15;5.43;101410.59;5077330;28;20088;-63
2023/05/08 06:11:11;;;;;;;1.40;1.30;;;;;;;36.69;5.44;101391.41;5094461;28;20028;-62
2023/05/08 06:13:39;;;;;;;2.53;1.25;;;;;;;36.77;5.29;101404.88;5094270;28;20035;-62
2023/05/08 06:16:05;;;;;;;2.55;1.30;;;;;;;37.12;5.52;101402.75;5094373;28;20032;-62
2023/05/08 06:18:30;;;;;;;2.13;1.45;;;;;;;37.92;5.14;101409.50;5094334;28;20028;-61
2023/05/08 06:20:57;;;;;;;3.40;1.45;;;;;;;38.22;4.73;101410.81;5076323;28;20035;-61
2023/05/08 06:23:22;;;;;;;6.50;2.03;;;;;;;38.12;4.65;101407.97;5093915;28;20114;-61
2023/05/08 06:25:48;;;;;;;13.82;3.10;;;;;;;38.16;4.94;101382.00;5093999;28;20103;-62
2023/05/08 06:28:14;;;;;;;10.88;2.58;;;;;;;38.57;4.58;101402.84;5094125;28;20093;-62
2023/05/08 06:30:39;;;;;;;4.80;1.83;;;;;;;39.48;4.21;101403.31;5092976;28;20111;-60
2023/05/08 06:33:05;;;;;;;4.95;1.65;;;;;;;39.86;3.79;101388.97;5093646;28;20431;-56
2023/05/08 06:35:31;;;;;;;2.00;1.20;;;;;;;40.01;3.61;101404.91;5075926;28;20036;-61
2023/05/08 06:37:56;;;;;;;3.05;1.17;;;;;;;39.29;3.76;101414.19;5093918;28;20040;-60
2023/05/08 06:40:22;;;;;;;1.95;1.23;;;;;;;39.18;4.17;101413.34;5093564;28;20043;-63
2023/05/08 06:42:48;;;;;;;1.33;1.10;;;;;;;38.71;4.00;101397.59;5093616;28;20401;-61
2023/05/08 06:45:13;;;;;;;1.85;0.77;;;;;;;38.49;4.12;101398.66;5093402;28;20454;-57
2023/05/08 06:47:39;;;;;;;6.43;1.13;;;;;;;36.37;4.90;101367.00;5092199;28;20055;-57
2023/05/08 06:50:05;;;;;;;4.75;0.90;;;;;;;36.19;5.25;101340.31;5093557;28;20395;-58
2023/05/08 06:52:31;;;;;;;1.73;0.70;;;;;;;36.84;4.82;101401.91;5093695;28;20032;-61
2023/05/08 06:54:57;;;;;;;1.80;0.52;;;;;;;35.04;5.27;101400.91;5093631;28;20465;-59
2023/05/08 06:57:25;;;;;;;0.70;0.60;;;;;;;33.12;6.17;101390.19;5093586;28;20024;-60
2023/05/08 06:59:52;;;;;;;4.10;0.77;;;;;;;34.00;6.18;101400.69;5093449;28;20451;-55
2023/05/08 07:02:18;;;;;;;1.13;0.80;;;;;;;35.64;5.57;101376.34;5093649;28;20111;-60
2023/05/08 07:04:43;;;;;;;3.15;0.82;;;;;;;36.17;5.19;101385.19;5093319;28;20135;-59
2023/05/08 07:07:10;;;;;;;3.67;1.00;;;;;;;38.04;4.60;101390.63;5093092;28;20048;-60
2023/05/08 07:09:36;;;;;;;8.13;0.95;;;;;;;38.67;4.25;101394.50;5093563;28;20478;-58
2023/05/08 07:12:01;;;;;;;2.67;0.68;;;;;;;38.84;3.84;101385.84;5092807;28;20090;-57
2023/05/08 07:14:27;;;;;;;1.00;0.88;;;;;;;39.37;3.85;101384.00;5092791;28;20024;-57
2023/05/08 07:16:53;;;;;;;3.33;1.02;;;;;;;40.51;3.14;101376.09;5093033;28;20124;-60
2023/05/08 07:19:19;;;;;;;1.85;1.13;;;;;;;40.96;2.92;101375.25;5093575;28;20032;-60
2023/05/08 07:21:45;;;;;;;2.67;1.05;;;;;;;41.22;2.64;101375.91;5093191;28;20032;-57
2023/05/08 07:24:11;;;;;;;1.60;1.20;;;;;;;41.55;3.16;101383.75;5093136;28;20067;-58
2023/05/08 07:26:36;;;;;;;1.77;0.90;;;;;;;41.86;2.42;101375.84;5093469;28;20070;-59
2023/05/08 07:29:02;;;;;;;2.35;1.05;;;;;;;42.35;2.32;101358.09;5074919;28;20160;-57
2023/05/08 07:31:27;;;;;;;3.55;0.88;;;;;;;43.35;2.36;101367.56;5092943;28;20032;-60
2023/05/08 07:33:53;;;;;;;1.75;1.27;;;;;;;43.79;2.12;101362.53;5093485;28;20438;-59
2023/05/08 07:36:19;;;;;;;3.55;0.95;;;;;;;44.25;1.78;101363.53;5093052;28;20376;-61
2023/05/08 07:38:44;;;;;;;1.77;1.13;;;;;;;44.04;2.11;101366.78;5092782;28;20044;-57
2023/05/08 07:41:10;;;;;;;1.40;1.30;;;;;;;42.82;2.70;101367.56;5092871;28;20027;-58
2023/05/08 07:43:36;;;;;;;4.45;1.00;;;;;;;42.04;2.65;101353.72;5093208;28;20107;-56
2023/05/08 07:46:02;;;;;;;1.27;1.10;;;;;;;39.33;3.61;101367.72;5092726;28;20036;-58
2023/05/08 07:48:27;;;;;;;2.05;1.02;;;;;;;36.52;4.99;101359.97;5092763;28;20051;-57
2023/05/08 07:50:53;;;;;;;3.40;1.00;;;;;;;35.59;5.19;101315.00;5093174;28;20499;-57
2023/05/08 07:53:18;;;;;;;2.22;0.93;;;;;;;36.38;4.97;101354.75;5093071;28;20028;-59
2023/05/08 07:55:44;;;;;;;5.78;1.55;;;;;;;36.30;5.20;101352.44;5092830;28;20092;-60
2023/05/08 07:58:09;;;;;;;3.85;1.23;;;;;;;33.03;6.43;101365.56;5093220;28;20039;-56
2023/05/08 08:00:35;;;;;;;1.83;0.82;;;;;;;29.10;8.36;101368.50;5095360;28;20027;-59
2023/05/08 08:03:01;;;;;;;7.63;1.20;;;;;;;25.82;10.38;101372.63;5095635;28;20355;-58
2023/05/08 08:05:27;;;;;;;3.17;1.08;;;;;;;23.42;11.93;101363.66;5095556;28;20031;-57
2023/05/08 08:07:53;;;;;;;2.13;0.90;;;;;;;21.28;12.95;101337.13;5077487;28;20511;-59
2023/05/08 08:10:18;;;;;;;3.90;0.70;;;;;;;19.95;14.49;101362.84;5092469;28;20036;-58
2023/05/08 08:12:44;;;;;;;1.67;1.10;;;;;;;18.88;15.53;101365.41;5095581;28;20093;-59
2023/05/08 08:15:10;;;;;;;2.63;0.90;;;;;;;18.02;16.78;101364.03;5095530;28;20024;-58
2023/05/08 08:17:36;;;;;;;3.92;1.05;;;;;;;17.27;17.69;101361.34;5094967;28;20165;-58
2023/05/08 08:20:02;;;;;;;3.05;0.70;;;;;;;16.61;18.12;101373.94;5095187;28;20470;-58
2023/05/08 08:22:30;;;;;;;1.77;0.95;;;;;;;16.21;18.69;101369.94;5095463;28;20102;-57
2023/05/08 08:24:55;;;;;;;0.80;0.68;;;;;;;15.96;18.93;101362.06;5095622;28;20161;-60
2023/05/08 08:27:21;;;;;;;1.40;0.75;;;;;;;15.81;18.89;101369.50;5095232;28;20450;-55
2023/05/08 08:29:47;;;;;;;5.32;0.90;;;;;;;15.63;19.43;101359.16;5095014;28;20376;-57
2023/05/08 08:32:12;;;;;;;6.82;1.10;;;;;;;15.81;19.40;101362.25;5095392;28;20036;-55
2023/05/08 08:34:38;;;;;;;5.82;1.10;;;;;;;16.05;18.88;101367.59;5095018;28;20024;-55
2023/05/08 08:37:06;;;;;;;10.05;1.00;;;;;;;16.53;18.01;101362.91;5094719;28;20130;-56
2023/05/08 08:39:33;;;;;;;4.68;1.13;;;;;;;16.46;17.97;101338.22;5094685;28;20035;-59
2023/05/08 08:41:59;;;;;;;1.83;0.68;;;;;;;16.59;17.96;101370.53;5091894;28;20434;-56
2023/05/08 08:44:25;;;;;;;1.40;0.80;;;;;;;16.49;17.79;101370.41;5095009;28;20035;-57
2023/05/08 08:46:51;;;;;;;4.40;0.82;;;;;;;16.35;18.16;101362.53;5093859;28;20048;-54
2023/05/08 08:49:22;;;;;;;1.15;0.70;;;;;;;16.02;18.38;101351.59;5094197;28;20038;-56
2023/05/08 08:51:54;;;;;;;2.22;0.80;;;;;;;15.70;18.71;101346.03;5094029;28;20415;-56
2023/05/08 08:54:23;;;;;;;3.60;0.82;;;;;;;15.53;19.00;101358.13;5091455;28;20087;-56
2023/05/08 08:56:50;;;;;;;4.43;1.30;;;;;;;15.54;19.13;101357.16;5093302;28;20443;-57
2023/05/08 08:59:17;;;;;;;3.17;0.90;;;;;;;15.47;19.27;101359.50;5087241;28;20548;-61
2023/05/08 09:01:52;;;;;;;1.45;0.93;;;;;;;15.47;19.30;101363.03;5095285;28;20054;-60
2023/05/08 09:04:18;;;;;;;4.05;0.80;;;;;;;15.49;19.09;101354.81;5095647;28;20056;-56
2023/05/08 09:06:44;;;;;;;3.40;0.80;;;;;;;15.34;18.80;101349.63;5095961;28;20128;-62
2023/05/08 09:09:12;;;;;;;3.08;0.90;;;;;;;15.30;19.15;101349.97;5077809;28;20032;-62
2023/05/08 09:11:39;;;;;;;2.00;1.02;;;;;;;15.26;19.15;101352.06;5094848;28;20027;-63
2023/05/08 09:14:05;;;;;;;3.95;1.13;;;;;;;15.18;19.10;101351.75;5077854;28;20063;-63
2023/05/08 09:16:30;;;;;;;8.13;1.10;;;;;;;15.01;19.58;101335.03;5095330;28;20539;-61
2023/05/08 09:18:56;;;;;;;4.70;0.80;;;;;;;15.05;19.54;101354.53;5095363;28;20404;-61
2023/05/08 09:21:22;;;;;;;1.20;0.98;;;;;;;14.94;19.52;101355.31;5095403;28;20024;-62
2023/05/08 09:24:03;;;;;;;2.67;0.90;;;;;;;14.91;18.98;101355.56;5094965;28;20458;-64
2023/05/08 09:26:40;;;;;;;4.55;1.25;;;;;;;14.73;19.64;101357.78;5095417;28;20038;-62
2023/05/08 09:29:16;;;;;;;1.23;0.90;;;;;;;14.41;19.44;101359.13;5095108;28;20077;-63
2023/05/08 09:31:47;;;;;;;6.25;1.00;;;;;;;14.17;19.84;101359.94;5077417;28;20035;-62
2023/05/08 09:34:27;;;;;;;2.65;0.80;;;;;;;14.01;19.77;101365.56;5077270;28;20370;-62
2023/05/08 09:37:13;;;;;;;4.60;0.90;;;;;;;13.95;19.56;101357.03;5094220;28;20028;-63
2023/05/08 09:39:40;;;;;;;;;;;;;;;14.15;19.21;101359.19;5095026;28;20067;-61
2023/05/08 09:42:06;;;;;;;2.97;0.80;;;;;;;13.57;20.35;101354.25;5094728;28;20351;-62
2023/05/08 09:44:51;;;;;;;3.65;0.93;;;;;;;13.43;20.74;101363.25;5094587;28;20040;-63
2023/05/08 09:47:21;;;;;;;7.05;1.60;;;;;;;13.25;21.16;101364.47;5077188;28;20047;-62
2023/05/08 09:50:02;;;;;;;6.60;1.30;;;;;;;13.26;21.02;101350.94;5094369;28;20032;-62
2023/05/08 09:52:33;;;;;;;3.45;1.10;;;;;;;13.18;21.11;101343.38;5094463;28;20126;-61
2023/05/08 09:55:03;;;;;;;4.88;1.08;;;;;;;13.01;21.44;101338.25;5094666;28;20073;-61
2023/05/08 09:57:38;;;;;;;1.80;1.30;;;;;;;13.08;21.87;101353.00;5093091;28;20024;-62
2023/05/08 10:00:08;;;;;;;3.20;0.93;;;;;;;13.13;21.96;101360.78;5093159;28;20039;-62
2023/05/08 10:02:36;;;;;;;2.95;1.20;;;;;;;13.07;22.18;101341.41;5093870;28;20035;-63
2023/05/08 10:05:04;;;;;;;3.28;1.02;;;;;;;13.14;22.28;101346.38;5094230;28;20035;-62
2023/05/08 10:07:33;;;;;;;3.28;1.00;;;;;;;13.20;22.07;101348.63;5093865;28;20467;-65
2023/05/08 10:10:05;;;;;;;5.38;1.00;;;;;;;13.39;21.64;101328.56;5094730;28;20442;-62
2023/05/08 10:12:32;;;;;;;2.42;1.00;;;;;;;13.80;21.38;101346.41;5092934;28;20020;-61
2023/05/08 10:14:58;;;;;;;2.83;1.10;;;;;;;14.05;21.08;101321.28;5093836;28;20058;-62
2023/05/08 10:17:45;;;;;;;3.03;0.95;;;;;;;14.57;20.52;101344.56;5094062;28;20028;-61
2023/05/08 10:20:13;;;;;;;1.65;0.95;;;;;;;14.90;19.56;101343.94;5093655;28;20036;-62
2023/05/08 10:22:42;;;;;;;0.70;0.70;;;;;;;14.97;19.39;101336.25;5093426;28;20036;-62
2023/05/08 10:25:14;;;;;;;0.85;0.85;;;;;;;15.07;19.05;101317.50;5076041;28;20028;-63
2023/05/08 10:27:46;;;;;;;3.13;1.00;;;;;;;15.38;18.95;101342.16;5093990;28;20024;-62
2023/05/08 10:30:13;;;;;;;1.10;0.90;;;;;;;15.48;18.88;101315.31;5094156;28;20024;-62
2023/05/08 10:32:43;;;;;;;2.50;0.80;;;;;;;15.79;18.52;101307.50;5092738;28;20099;-61
2023/05/08 10:35:11;;;;;;;6.28;1.25;;;;;;;16.06;18.46;101330.63;5093422;28;20062;-61
2023/05/08 10:37:38;;;;;;;1.30;0.95;;;;;;;16.10;17.90;101339.34;5075384;28;20051;-62
2023/05/08 10:40:05;;;;;;;3.58;0.88;;;;;;;16.14;17.91;101333.56;5093322;28;20028;-63
2023/05/08 10:42:35;;;;;;;3.35;0.80;;;;;;;16.18;17.93;101320.66;5093496;28;20036;-62
2023/05/08 10:45:03;;;;;;;2.08;0.90;;;;;;;16.15;17.72;101319.06;5093567;28;20439;-62
2023/05/08 10:47:45;;;;;;;1.92;0.90;;;;;;;16.12;17.53;101315.78;5093411;28;20085;-61
2023/05/08 10:50:52;;;;;;;2.10;0.70;;;;;;;16.00;17.75;101293.31;5093302;28;20503;-63
2023/05/08 10:53:51;;;;;;;5.32;1.20;;;;;;;16.35;17.53;101319.28;5059433;28;20100;-62
2023/05/08 10:56:16;;;;;;;4.60;0.90;;;;;;;15.95;18.18;101319.84;5093219;28;20042;-61
2023/05/08 10:58:42;;;;;;;5.32;1.40;;;;;;;15.83;18.07;101302.72;5092509;28;20119;-62
2023/05/08 11:01:07;;;;;;;7.50;1.10;;;;;;;15.81;18.50;101308.25;5075429;28;20169;-62
2023/05/08 11:03:49;;;;;;;2.53;0.80;;;;;;;15.92;17.93;101308.28;5093038;28;20370;-64
2023/05/08 11:06:16;;;;;;;4.25;1.50;;;;;;;15.57;18.07;101300.25;5092806;28;20423;-63
2023/05/08 11:08:49;;;;;;;2.15;1.40;;;;;;;15.17;18.61;101279.91;5075205;28;20043;-62
2023/05/08 11:11:23;;;;;;;2.78;1.33;;;;;;;15.31;18.57;101277.00;5092961;28;20449;-62
2023/05/08 11:13:54;;;;;;;3.05;1.00;;;;;;;15.59;18.68;101301.81;5092808;28;20056;-61
2023/05/08 11:17:00;;;;;;;2.17;0.90;;;;;;;15.83;18.13;101297.34;5093591;28;20028;-61
2023/05/08 11:19:27;;;;;;;;;;;;;;;16.23;17.75;101304.09;5075314;28;20043;-62
2023/05/08 11:22:11;;;;;;;;;;;;;;;16.47;17.48;101296.69;5092770;28;19920;-61
2023/05/08 11:24:38;;;;;;;2.22;1.40;;;;;;;15.72;18.48;101295.47;5073011;28;19939;-63
2023/05/08 11:27:04;;;;;;;2.10;1.35;;;;;;;15.30;18.98;101286.06;5082070;28;20067;-63
2023/05/08 11:29:29;;;;;;;3.78;1.48;;;;;;;15.26;18.84;101295.38;5075202;28;20055;-61
2023/05/08 11:31:55;;;;;;;6.35;1.60;;;;;;;15.34;18.83;101294.81;5092234;28;20036;-62
2023/05/08 11:34:42;;;;;;;2.97;1.40;;;;;;;15.21;19.16;101295.75;5092249;28;20028;-62
2023/05/08 11:37:16;;;;;;;2.70;1.30;;;;;;;15.12;19.12;101298.28;5092594;28;20030;-61